Time;durP1;ratioP1;P1;durP2;ratioP2;P2;SDS_P1;SDS_P2;PMS_P1;PMS_P2;Temp;Humidity;BMP_temperature;BMP_pressure;BME280_temperature;BME280_humidity;BME280_pressure;Samples;Min_cycle;Max_cycle;Signal;HPM_P1;HPM_P2
2022/01/30 00:01:48;;;;;;;20.73;3.80;;;;;;;4.28;97.68;100616.69;5035630;28;20160;-75
2022/01/30 00:04:13;;;;;;;19.33;3.83;;;;;;;4.38;96.57;100620.22;5035677;28;20402;-75
2022/01/30 00:06:39;;;;;;;21.02;3.30;;;;;;;4.31;97.64;100616.72;5035601;28;20105;-75
2022/01/30 00:09:08;;;;;;;24.27;3.80;;;;;;;4.41;96.44;100617.59;5035621;28;20028;-75
2022/01/30 00:11:36;;;;;;;22.33;3.33;;;;;;;4.41;96.61;100627.28;5034169;28;20026;-75
2022/01/30 00:14:04;;;;;;;19.75;4.15;;;;;;;4.38;95.76;100622.03;5051923;22;20037;-73
2022/01/30 00:16:33;;;;;;;24.40;4.35;;;;;;;4.31;96.69;100622.00;5035745;28;20029;-73
2022/01/30 00:19:07;;;;;;;21.15;3.95;;;;;;;4.34;95.22;100627.31;5035995;28;20363;-73
2022/01/30 00:21:47;;;;;;;;;;;;;;;4.34;94.31;100624.66;5034130;28;20112;-72
2022/01/30 00:24:25;;;;;;;18.70;3.72;;;;;;;4.28;95.51;100616.69;5035669;28;19909;-73
2022/01/30 00:26:51;;;;;;;24.08;3.85;;;;;;;4.24;95.47;100620.22;5035826;28;20030;-72
2022/01/30 00:29:16;;;;;;;15.90;3.28;;;;;;;4.20;95.60;100619.34;5034393;28;20035;-72
2022/01/30 00:31:42;;;;;;;18.77;4.03;;;;;;;4.20;94.93;100616.69;5035660;28;20402;-72
2022/01/30 00:34:08;;;;;;;22.40;3.45;;;;;;;4.20;94.70;100608.75;5035415;28;20028;-73
2022/01/30 00:36:33;;;;;;;20.40;3.30;;;;;;;4.17;93.78;100607.88;5035316;28;20464;-72
2022/01/30 00:38:59;;;;;;;17.42;3.38;;;;;;;4.16;93.40;100627.25;5035597;28;20025;-72
2022/01/30 00:41:25;;;;;;;20.50;3.40;;;;;;;4.21;92.97;100631.69;5035563;28;20079;-72
2022/01/30 00:43:51;;;;;;;21.73;3.30;;;;;;;4.21;91.93;100622.88;5035450;28;20095;-73
2022/01/30 00:46:17;;;;;;;17.30;3.30;;;;;;;4.15;92.73;100620.22;5035185;28;20405;-73
2022/01/30 00:48:42;;;;;;;20.48;3.80;;;;;;;4.21;91.68;100615.81;5035173;28;20025;-73
2022/01/30 00:51:08;;;;;;;20.33;4.43;;;;;;;4.24;91.34;100630.81;5035372;28;20060;-73
2022/01/30 00:53:33;;;;;;;15.98;3.10;;;;;;;4.18;91.95;100620.22;5035252;28;20029;-73
2022/01/30 00:55:58;;;;;;;18.33;3.58;;;;;;;4.19;90.92;100638.72;5034969;28;20020;-73
2022/01/30 00:58:24;;;;;;;11.15;2.90;;;;;;;4.13;91.92;100634.31;5035205;28;20025;-73
2022/01/30 01:00:49;;;;;;;22.70;3.45;;;;;;;4.20;91.97;100639.63;5033606;28;20075;-73
2022/01/30 01:03:14;;;;;;;19.02;3.17;;;;;;;4.21;91.75;100628.16;5033611;28;20029;-73
2022/01/30 01:05:40;;;;;;;16.88;3.38;;;;;;;4.13;92.32;100623.72;5034739;28;20029;-73
2022/01/30 01:08:48;;;;;;;15.88;2.72;;;;;;;4.13;92.15;100622.84;5034780;28;20029;-73
2022/01/30 01:11:26;;;;;;;20.05;3.22;;;;;;;4.05;92.14;100625.47;5032427;28;20035;-73
2022/01/30 01:24:07;;;;;;;17.35;3.17;;;;;;;4.15;91.25;100636.94;5034497;28;20059;-73
2022/01/30 01:26:34;;;;;;;22.08;3.15;;;;;;;4.01;92.79;100640.44;5034383;28;20493;-73
2022/01/30 01:29:00;;;;;;;24.85;3.47;;;;;;;4.01;94.69;100636.91;5034294;28;20029;-73
2022/01/30 01:31:26;;;;;;;18.60;3.83;;;;;;;4.02;93.67;100636.06;5033720;28;20060;-73
2022/01/30 01:34:06;;;;;;;18.23;3.15;;;;;;;4.07;93.30;100638.72;5034322;28;20045;-73
2022/01/30 01:36:32;;;;;;;16.92;3.22;;;;;;;4.15;91.69;100630.81;5034248;28;20044;-73
2022/01/30 01:38:57;;;;;;;18.55;3.67;;;;;;;4.06;91.45;100624.59;5034159;28;20034;-73
2022/01/30 01:41:24;;;;;;;22.35;3.80;;;;;;;4.05;92.02;100635.16;5032832;28;20083;-73
2022/01/30 01:43:50;;;;;;;18.80;3.17;;;;;;;3.94;92.66;100632.50;5034047;28;20021;-73
2022/01/30 01:46:21;;;;;;;20.50;3.70;;;;;;;4.01;91.97;100631.63;5034006;28;20074;-73
2022/01/30 01:48:50;;;;;;;24.27;4.07;;;;;;;4.02;91.21;100636.06;5034291;28;20025;-72
2022/01/30 01:51:19;;;;;;;18.13;3.92;;;;;;;3.89;92.72;100646.56;5033972;28;20053;-73
2022/01/30 01:53:47;;;;;;;20.27;2.78;;;;;;;3.84;92.56;100645.66;5032688;28;20055;-72
2022/01/30 01:56:14;;;;;;;14.10;2.97;;;;;;;3.85;92.53;100644.81;5032698;28;20503;-73
2022/01/30 01:58:40;;;;;;;20.25;3.97;;;;;;;3.84;92.42;100647.44;5034158;28;20036;-73
2022/01/30 02:01:05;;;;;;;19.52;3.40;;;;;;;3.83;92.55;100629.81;5033695;28;20186;-73
2022/01/30 02:03:30;;;;;;;16.40;2.78;;;;;;;3.85;92.86;100634.22;5033993;28;20036;-72
2022/01/30 02:06:00;;;;;;;16.63;3.85;;;;;;;3.90;92.10;100636.88;5032385;28;20112;-72
2022/01/30 02:08:45;;;;;;;18.05;3.42;;;;;;;3.85;92.73;100647.44;5032320;28;20036;-73
2022/01/30 02:11:15;;;;;;;16.88;2.78;;;;;;;3.81;93.78;100637.75;5033838;28;20025;-72
2022/01/30 02:24:39;;;;;;;15.20;2.95;;;;;;;3.84;92.74;100643.03;5033974;28;20067;-72
2022/01/30 02:27:05;;;;;;;12.55;2.50;;;;;;;3.69;93.13;100660.59;5033629;28;20025;-73
2022/01/30 02:29:31;;;;;;;21.95;3.10;;;;;;;3.74;92.10;100660.59;5033345;28;20109;-73
2022/01/30 02:31:59;;;;;;;17.48;2.95;;;;;;;3.74;91.51;100668.53;5033254;28;20032;-73
2022/01/30 02:34:29;;;;;;;14.73;2.97;;;;;;;3.74;90.99;100686.13;5034592;28;20105;-72
2022/01/30 02:36:55;;;;;;;17.27;3.42;;;;;;;3.89;90.58;100683.56;5033656;28;20029;-73
2022/01/30 02:39:21;;;;;;;18.77;3.25;;;;;;;3.88;90.77;100681.81;5033252;28;20406;-73
2022/01/30 02:41:48;;;;;;;14.85;3.05;;;;;;;3.93;90.33;100683.56;5031843;28;20022;-73
2022/01/30 02:44:22;;;;;;;20.45;3.83;;;;;;;3.97;90.64;100688.00;5032799;28;20082;-73
2022/01/30 02:46:51;;;;;;;22.00;3.55;;;;;;;3.94;91.62;100693.28;5031844;28;20024;-73
2022/01/30 02:52:02;;;;;;;16.65;2.88;;;;;;;3.90;91.95;100689.72;5033332;28;20479;-72
2022/01/30 02:54:29;;;;;;;22.42;3.15;;;;;;;3.78;93.29;100691.44;5033070;28;20037;-72
2022/01/30 02:56:55;;;;;;;25.92;4.20;;;;;;;3.69;94.18;100687.00;5033553;28;20041;-73
2022/01/30 02:59:22;;;;;;;14.85;2.40;;;;;;;3.65;94.55;100669.38;5031830;28;20068;-72
2022/01/30 03:01:47;;;;;;;19.80;3.28;;;;;;;3.57;95.60;100677.25;5031653;28;20033;-73
2022/01/30 03:04:13;;;;;;;23.10;3.08;;;;;;;3.58;96.21;100673.72;5033157;28;20021;-73
2022/01/30 03:06:40;;;;;;;16.10;2.95;;;;;;;3.56;96.52;100664.03;5032964;28;20026;-72
2022/01/30 03:09:07;;;;;;;19.80;3.58;;;;;;;3.58;96.93;100664.94;5031656;28;20028;-72
2022/01/30 03:11:33;;;;;;;15.45;3.08;;;;;;;3.54;97.06;100660.50;5031488;28;20029;-73
2022/01/30 03:13:58;;;;;;;15.70;4.35;;;;;;;3.45;97.96;100664.84;5032959;28;20049;-73
2022/01/30 03:16:24;;;;;;;20.52;3.72;;;;;;;3.46;98.20;100679.84;5032851;28;20028;-73
2022/01/30 03:18:50;;;;;;;24.50;3.40;;;;;;;3.49;98.48;100668.41;5032789;28;20033;-73
2022/01/30 03:21:16;;;;;;;18.30;2.78;;;;;;;3.43;97.96;100663.06;5032743;28;20030;-73
2022/01/30 03:23:41;;;;;;;19.48;3.30;;;;;;;3.40;97.38;100669.22;5033067;28;20083;-73
2022/01/30 03:26:09;;;;;;;30.52;4.18;;;;;;;3.41;98.50;100663.09;5032704;28;20018;-73
2022/01/30 03:28:35;;;;;;;29.05;4.13;;;;;;;3.42;97.61;100672.78;5033076;28;20029;-73
2022/01/30 03:31:04;;;;;;;13.98;2.78;;;;;;;3.35;98.87;100660.44;5032665;28;20375;-73
2022/01/30 03:33:30;;;;;;;20.95;4.50;;;;;;;3.42;97.42;100666.59;5031367;28;20033;-73
2022/01/30 03:35:56;;;;;;;18.20;3.63;;;;;;;3.43;97.98;100677.16;5032751;28;20120;-73
2022/01/30 03:38:22;;;;;;;21.65;3.50;;;;;;;3.43;98.38;100674.53;5031398;28;20108;-73
2022/01/30 03:40:49;;;;;;;21.02;3.33;;;;;;;3.40;98.53;100690.34;5032893;28;20032;-73
2022/01/30 03:43:15;;;;;;;21.55;3.40;;;;;;;3.36;99.68;100667.44;5032794;28;20056;-73
2022/01/30 03:45:41;;;;;;;17.25;3.88;;;;;;;3.22;100.00;100676.16;5032856;28;20022;-73
2022/01/30 03:48:07;;;;;;;18.90;3.05;;;;;;;3.25;100.00;100680.56;5032830;28;20041;-73
2022/01/30 03:50:33;;;;;;;15.80;3.30;;;;;;;3.18;100.00;100673.50;5032549;28;20029;-73
2022/01/30 03:52:59;;;;;;;19.38;3.95;;;;;;;3.08;100.00;100673.44;5031239;28;20116;-73
2022/01/30 03:55:25;;;;;;;20.55;3.55;;;;;;;3.05;100.00;100683.97;5033681;28;20104;-73
2022/01/30 03:57:50;;;;;;;17.77;3.70;;;;;;;2.94;100.00;100697.06;5036080;28;20041;-73
2022/01/30 04:00:16;;;;;;;24.17;3.10;;;;;;;2.92;100.00;100703.19;5036368;28;20129;-73
2022/01/30 04:02:42;;;;;;;24.27;3.60;;;;;;;2.92;100.00;100704.09;5035973;28;20481;-73
2022/01/30 04:05:08;;;;;;;23.17;4.63;;;;;;;2.97;100.00;100707.66;5036007;28;20037;-73
2022/01/30 04:07:34;;;;;;;21.60;3.50;;;;;;;3.06;100.00;100729.72;5035995;28;20083;-73
2022/01/30 04:09:59;;;;;;;24.23;4.18;;;;;;;3.17;100.00;100730.66;5035007;28;20082;-73
2022/01/30 04:12:25;;;;;;;20.88;4.07;;;;;;;3.23;100.00;100729.84;5035891;28;20096;-73
2022/01/30 04:14:50;;;;;;;24.73;4.10;;;;;;;3.20;100.00;100735.97;5036061;28;20033;-73
2022/01/30 04:17:18;;;;;;;24.10;3.58;;;;;;;3.08;100.00;100752.59;5034517;28;20037;-73
2022/01/30 04:19:44;;;;;;;22.95;4.25;;;;;;;3.00;100.00;100723.50;5035789;28;20021;-73
2022/01/30 04:22:09;;;;;;;25.60;4.15;;;;;;;2.78;100.00;100738.25;5035606;28;20033;-73
2022/01/30 04:24:35;;;;;;;25.23;3.80;;;;;;;2.78;100.00;100733.84;5035914;28;20108;-73
2022/01/30 04:27:00;;;;;;;15.98;3.45;;;;;;;2.72;100.00;100725.00;5035754;28;20028;-72
2022/01/30 04:29:26;;;;;;;20.40;3.50;;;;;;;2.64;100.00;100719.66;5034344;28;20056;-73
2022/01/30 04:31:52;;;;;;;17.83;3.50;;;;;;;2.73;100.00;100721.50;5035433;28;20026;-73
2022/01/30 04:34:18;;;;;;;16.60;3.00;;;;;;;2.76;100.00;100724.16;5035473;28;20032;-73
2022/01/30 04:36:59;;;;;;;26.70;4.53;;;;;;;2.82;100.00;100720.69;5035952;28;20531;-73
2022/01/30 04:42:31;;;;;;;20.45;3.03;;;;;;;2.87;100.00;100730.44;5035541;28;20032;-73
2022/01/30 04:53:35;;;;;;;27.42;3.90;;;;;;;2.84;100.00;100743.59;5035481;28;20060;-72
2022/01/30 04:58:50;;;;;;;22.85;4.10;;;;;;;2.86;100.00;100748.91;5035465;28;20029;-72
2022/01/30 05:06:17;;;;;;;23.08;3.58;;;;;;;2.90;100.00;100754.22;5035249;28;20025;-72
2022/01/30 05:08:43;;;;;;;21.63;3.72;;;;;;;2.88;100.00;100749.78;5035097;28;20505;-73
2022/01/30 05:11:09;;;;;;;18.70;3.45;;;;;;;2.84;100.00;100758.53;5033397;28;20189;-73
2022/01/30 05:13:41;;;;;;;19.85;4.32;;;;;;;2.89;100.00;100762.09;5034713;28;20036;-72
2022/01/30 05:16:07;;;;;;;18.52;3.30;;;;;;;2.93;100.00;100758.63;5033427;28;20029;-73
2022/01/30 05:18:32;;;;;;;20.20;4.47;;;;;;;2.93;100.00;100753.34;5034494;28;20032;-72
2022/01/30 05:20:58;;;;;;;23.52;3.22;;;;;;;2.98;100.00;100762.19;5034527;28;20148;-72
2022/01/30 05:23:24;;;;;;;20.35;3.70;;;;;;;2.88;100.00;100745.41;5034483;28;20033;-72
2022/01/30 05:25:51;;;;;;;21.02;4.00;;;;;;;3.01;97.55;100756.94;5034242;28;20076;-72
2022/01/30 05:28:22;;;;;;;27.45;4.07;;;;;;;2.93;98.48;100741.91;5034416;28;20033;-72
2022/01/30 05:30:48;;;;;;;18.52;3.55;;;;;;;2.89;98.44;100746.25;5034863;28;20489;-72
2022/01/30 05:33:14;;;;;;;20.13;4.03;;;;;;;2.89;97.79;100757.69;5034246;28;20033;-72
2022/01/30 05:35:40;;;;;;;23.35;4.10;;;;;;;2.95;97.30;100767.44;5034497;28;20101;-73
2022/01/30 05:38:05;;;;;;;19.95;4.15;;;;;;;2.90;97.91;100774.41;5032967;28;20029;-72
2022/01/30 05:40:32;;;;;;;24.75;4.40;;;;;;;2.84;98.36;100798.09;5034122;28;20100;-73
2022/01/30 05:42:58;;;;;;;19.73;3.83;;;;;;;2.85;99.20;100797.22;5034376;28;20437;-72
2022/01/30 05:47:57;;;;;;;22.17;4.55;;;;;;;2.77;100.00;100795.41;5034269;28;20036;-73
2022/01/30 05:50:22;;;;;;;27.05;4.32;;;;;;;2.86;98.83;100802.50;5032708;28;20112;-73
2022/01/30 05:52:48;;;;;;;20.48;3.90;;;;;;;2.85;100.00;100797.22;5034555;28;20060;-73
2022/01/30 05:55:13;;;;;;;22.08;4.85;;;;;;;2.79;100.00;100817.41;5032571;28;20067;-73
2022/01/30 05:57:38;;;;;;;22.75;4.28;;;;;;;2.81;100.00;100800.72;5032564;28;20071;-73
2022/01/30 06:00:06;;;;;;;26.30;4.60;;;;;;;2.81;100.00;100800.72;5034353;28;20083;-72
2022/01/30 06:02:32;;;;;;;31.17;5.05;;;;;;;2.69;100.00;100789.16;5034262;28;20049;-72
2022/01/30 06:04:58;;;;;;;27.15;4.60;;;;;;;2.72;100.00;100806.75;5033850;28;20064;-72
2022/01/30 06:07:28;;;;;;;22.60;4.22;;;;;;;2.75;100.00;100796.25;5033595;28;20021;-72
2022/01/30 06:09:53;;;;;;;20.48;4.10;;;;;;;2.71;99.60;100803.22;5033661;28;20029;-72
2022/01/30 06:12:19;;;;;;;20.83;4.00;;;;;;;2.79;98.55;100803.31;5033507;28;20163;-72
2022/01/30 06:14:46;;;;;;;26.77;4.95;;;;;;;2.76;98.18;100822.63;5044483;22;20410;-87
2022/01/30 06:17:12;;;;;;;24.30;4.63;;;;;;;2.77;97.77;100813.88;5012407;28;20108;-86
2022/01/30 06:19:37;;;;;;;25.48;4.60;;;;;;;2.76;97.43;100822.63;5012149;28;20507;-86
2022/01/30 06:22:05;;;;;;;23.40;4.40;;;;;;;2.84;97.10;100824.47;5012216;28;20025;-87
2022/01/30 06:24:30;;;;;;;24.73;4.20;;;;;;;2.84;96.84;100822.72;5012568;28;20029;-88
2022/01/30 06:26:56;;;;;;;24.40;4.40;;;;;;;2.80;97.12;100836.75;5013829;28;20399;-86
2022/01/30 06:29:21;;;;;;;26.40;4.80;;;;;;;2.77;97.76;100842.88;5013945;28;20030;-87
2022/01/30 06:31:47;;;;;;;27.05;4.30;;;;;;;2.80;97.23;100847.31;5013911;28;20030;-88
2022/01/30 06:34:12;;;;;;;22.58;4.30;;;;;;;2.69;98.36;100847.16;5013685;28;20029;-87
2022/01/30 06:36:37;;;;;;;21.80;4.30;;;;;;;2.72;97.95;100849.84;5014305;28;20542;-86
2022/01/30 06:39:03;;;;;;;27.95;4.15;;;;;;;2.61;99.22;100851.47;5014067;28;20025;-87
2022/01/30 06:41:31;;;;;;;23.70;4.95;;;;;;;2.62;99.74;100858.50;5012540;28;20029;-85
2022/01/30 06:43:56;;;;;;;23.02;4.32;;;;;;;2.67;99.55;100856.81;5013961;28;20026;-87
2022/01/30 06:46:22;;;;;;;25.27;4.75;;;;;;;2.62;99.95;100863.78;5012451;28;20030;-88
2022/01/30 06:48:47;;;;;;;26.33;4.72;;;;;;;2.64;100.00;100872.59;5012485;28;20079;-86
2022/01/30 06:51:12;;;;;;;21.02;4.53;;;;;;;2.54;100.00;100864.59;5012644;28;20037;-88
2022/01/30 06:53:46;;;;;;;28.85;4.53;;;;;;;2.52;100.00;100858.41;5013460;28;20033;-87
2022/01/30 06:56:12;;;;;;;26.17;4.95;;;;;;;2.53;100.00;100860.16;5013615;28;20470;-88
2022/01/30 06:58:37;;;;;;;31.90;5.32;;;;;;;2.48;100.00;100872.41;5012817;28;20054;-85
2022/01/30 07:01:08;;;;;;;24.08;4.78;;;;;;;2.47;100.00;100854.84;5012886;28;20033;-87
2022/01/30 07:03:33;;;;;;;34.42;6.18;;;;;;;2.34;100.00;100837.97;5012488;28;20030;-86
2022/01/30 07:05:58;;;;;;;22.50;4.70;;;;;;;2.41;100.00;100858.28;5014426;28;20025;-85
2022/01/30 07:08:24;;;;;;;28.02;5.05;;;;;;;2.50;100.00;100844.31;5014652;28;20100;-86
2022/01/30 07:10:49;;;;;;;29.45;5.15;;;;;;;2.42;100.00;100845.97;5012474;28;20108;-85
2022/01/30 07:13:14;;;;;;;29.20;5.60;;;;;;;2.50;100.00;100839.03;5013645;28;20527;-85
2022/01/30 07:15:41;;;;;;;28.23;5.60;;;;;;;2.54;100.00;100835.59;5013383;28;20030;-85
2022/01/30 07:18:07;;;;;;;33.20;5.85;;;;;;;2.59;100.00;100833.00;5012447;28;20021;-85
2022/01/30 07:20:32;;;;;;;34.17;6.03;;;;;;;2.63;100.00;100833.94;5012254;28;20080;-85
2022/01/30 07:22:57;;;;;;;28.15;5.85;;;;;;;2.75;100.00;100839.34;5012081;28;20428;-85
2022/01/30 07:25:23;;;;;;;24.48;5.55;;;;;;;2.77;100.00;100848.16;5013511;28;20079;-85
2022/01/30 07:27:48;;;;;;;35.83;5.45;;;;;;;2.81;100.00;100864.03;5013250;28;20033;-88
2022/01/30 07:30:14;;;;;;;35.78;4.80;;;;;;;2.80;100.00;100873.69;5014349;28;20037;-87
2022/01/30 07:32:39;;;;;;;23.10;5.30;;;;;;;2.74;100.00;100882.41;5018321;28;20021;-84
2022/01/30 07:35:05;;;;;;;29.38;5.88;;;;;;;2.78;100.00;100884.19;5016088;28;20057;-86
2022/01/30 07:37:33;;;;;;;35.25;6.35;;;;;;;2.61;100.00;100899.81;5017695;28;20457;-85
2022/01/30 07:39:59;;;;;;;26.60;5.55;;;;;;;2.64;100.00;100910.41;5018284;28;20037;-86
2022/01/30 07:42:26;;;;;;;25.75;5.47;;;;;;;2.55;100.00;100912.94;5019874;28;20471;-86
2022/01/30 07:44:52;;;;;;;29.52;6.13;;;;;;;2.50;100.00;100906.72;5041330;28;20053;-86
2022/01/30 07:47:18;;;;;;;32.38;5.47;;;;;;;2.53;100.00;100934.00;5040543;28;20045;-85
2022/01/30 07:49:49;;;;;;;27.42;5.57;;;;;;;2.50;100.00;100933.94;5040595;28;20029;-86
2022/01/30 07:52:14;;;;;;;25.80;4.90;;;;;;;2.52;100.00;100933.97;5040470;28;20021;-84
2022/01/30 07:54:40;;;;;;;22.17;4.10;;;;;;;2.49;100.00;100937.47;5040965;28;20029;-86
2022/01/30 07:57:05;;;;;;;29.45;5.30;;;;;;;2.43;100.00;100932.97;5040197;28;20017;-86
2022/01/30 07:59:30;;;;;;;25.55;5.20;;;;;;;2.44;100.00;100936.50;5039750;28;20033;-86
2022/01/30 08:01:56;;;;;;;30.83;4.88;;;;;;;2.38;100.00;100941.69;5027393;28;20040;-84
2022/01/30 08:04:22;;;;;;;36.67;5.68;;;;;;;2.40;100.00;100947.84;5016875;28;20069;-87
2022/01/30 08:06:47;;;;;;;27.90;5.35;;;;;;;2.33;100.00;100953.06;5017811;28;20022;-86
2022/01/30 08:09:12;;;;;;;26.23;5.82;;;;;;;2.40;100.00;100961.94;5017387;28;20096;-85
2022/01/30 08:11:38;;;;;;;26.90;5.03;;;;;;;2.48;100.00;100962.03;5017658;28;20033;-86
2022/01/30 08:14:03;;;;;;;23.73;4.60;;;;;;;2.52;100.00;100971.78;5015944;28;20026;-85
2022/01/30 08:16:29;;;;;;;31.80;5.13;;;;;;;2.54;100.00;100979.69;5016282;28;20026;-85
2022/01/30 08:18:57;;;;;;;20.70;4.60;;;;;;;2.58;100.00;100983.28;5016286;28;20025;-86
2022/01/30 08:21:22;;;;;;;24.50;4.78;;;;;;;2.60;100.00;100978.91;5017771;28;20045;-86
2022/01/30 08:23:48;;;;;;;22.10;4.80;;;;;;;2.59;100.00;100990.31;5016622;28;20072;-86
2022/01/30 08:26:14;;;;;;;26.25;5.32;;;;;;;2.64;100.00;100997.44;5015909;28;20024;-86
2022/01/30 08:28:39;;;;;;;24.58;4.45;;;;;;;2.64;100.00;100993.91;5016747;28;20061;-85
2022/01/30 08:31:04;;;;;;;31.27;5.55;;;;;;;2.68;100.00;100993.97;5018055;28;20022;-86
2022/01/30 08:33:30;;;;;;;25.35;4.82;;;;;;;2.65;100.00;100996.59;5016059;28;20467;-85
2022/01/30 08:35:55;;;;;;;25.63;4.72;;;;;;;2.73;100.00;100994.03;5017606;28;20430;-87
2022/01/30 08:38:20;;;;;;;29.13;5.47;;;;;;;2.75;100.00;101000.22;5017185;28;20037;-86
2022/01/30 08:40:47;;;;;;;29.15;5.47;;;;;;;2.71;100.00;100990.47;5015611;28;20026;-86
2022/01/30 08:43:12;;;;;;;31.92;5.53;;;;;;;2.67;100.00;101001.88;5018859;28;20053;-85
2022/01/30 08:45:38;;;;;;;27.00;5.22;;;;;;;2.70;100.00;101004.56;5017486;28;20372;-86
2022/01/30 08:48:06;;;;;;;31.83;5.63;;;;;;;2.64;100.00;101015.00;5016359;28;20390;-86
2022/01/30 08:50:31;;;;;;;27.10;5.43;;;;;;;2.67;100.00;101020.31;5017589;28;20025;-85
2022/01/30 08:52:57;;;;;;;30.67;5.63;;;;;;;2.72;100.00;101023.91;5016736;28;20029;-85
2022/01/30 08:55:22;;;;;;;27.27;5.43;;;;;;;2.82;100.00;101016.13;5017153;28;20021;-86
2022/01/30 08:57:47;;;;;;;31.38;6.68;;;;;;;2.83;100.00;101031.09;5015756;28;20022;-86
2022/01/30 09:00:16;;;;;;;31.65;6.75;;;;;;;2.91;100.00;101032.09;5016208;28;20022;-85
2022/01/30 09:02:42;;;;;;;30.38;5.60;;;;;;;2.93;100.00;101040.91;5015898;28;20045;-86
2022/01/30 09:05:12;;;;;;;35.72;6.13;;;;;;;2.94;100.00;101049.72;5014438;28;20030;-86
2022/01/30 09:07:38;;;;;;;35.33;6.35;;;;;;;2.97;100.00;101055.91;5018535;28;20097;-85
2022/01/30 09:10:06;;;;;;;32.95;6.38;;;;;;;2.94;100.00;101052.38;5017205;28;20030;-87
2022/01/30 09:12:31;;;;;;;31.02;6.10;;;;;;;2.90;100.00;101048.78;4998167;28;20569;-85
2022/01/30 09:14:57;;;;;;;37.50;5.93;;;;;;;3.16;100.00;101050.00;5016124;28;20034;-86
2022/01/30 09:17:24;;;;;;;35.28;6.47;;;;;;;3.44;100.00;101040.69;5015548;28;20025;-86
2022/01/30 09:19:49;;;;;;;29.80;6.45;;;;;;;3.39;100.00;101052.03;5014776;28;20033;-85
2022/01/30 09:22:18;;;;;;;32.35;6.50;;;;;;;3.43;100.00;101051.19;5016522;28;20049;-86
2022/01/30 09:24:44;;;;;;;36.80;6.88;;;;;;;3.42;100.00;101052.97;5015636;28;20101;-86
2022/01/30 09:27:10;;;;;;;30.50;6.13;;;;;;;3.38;100.00;101044.97;5016259;28;20061;-86
2022/01/30 09:29:37;;;;;;;39.80;6.10;;;;;;;3.37;100.00;101041.47;5016282;28;20387;-87
2022/01/30 09:32:05;;;;;;;34.55;5.88;;;;;;;3.40;100.00;101032.72;5015745;28;20018;-87
2022/01/30 09:34:31;;;;;;;28.55;7.10;;;;;;;3.44;100.00;101013.38;5015858;28;20025;-86
2022/01/30 09:36:56;;;;;;;37.05;6.45;;;;;;;3.39;100.00;101023.91;5014822;28;20483;-86
2022/01/30 09:39:23;;;;;;;41.60;7.78;;;;;;;3.37;100.00;101041.47;5015506;28;20017;-86
2022/01/30 09:41:50;;;;;;;33.58;6.97;;;;;;;3.39;98.97;101015.97;5013478;28;20029;-87
2022/01/30 09:44:17;;;;;;;35.42;6.40;;;;;;;3.45;98.93;101029.22;5014980;28;20105;-86
2022/01/30 09:46:43;;;;;;;29.38;6.40;;;;;;;3.45;96.07;101021.31;5013759;28;20164;-87
2022/01/30 09:49:10;;;;;;;35.35;6.82;;;;;;;3.43;96.79;101017.78;5014155;28;20052;-87
2022/01/30 09:51:40;;;;;;;36.22;6.97;;;;;;;3.40;96.56;101016.88;5015179;28;20030;-86
2022/01/30 09:54:08;;;;;;;35.97;6.32;;;;;;;3.42;95.23;101017.75;5014374;28;20037;-86
2022/01/30 09:56:33;;;;;;;35.78;7.05;;;;;;;3.47;95.66;101021.34;5014314;28;20018;-85
2022/01/30 09:59:01;;;;;;;38.92;7.10;;;;;;;3.73;95.24;101019.84;5017658;28;20029;-85
2022/01/30 10:01:33;;;;;;;30.25;6.15;;;;;;;3.85;93.02;101014.69;5020586;28;20080;-85
2022/01/30 10:03:58;;;;;;;37.58;6.32;;;;;;;3.95;91.57;101009.47;5019389;28;20487;-85
2022/01/30 10:06:29;;;;;;;38.05;7.18;;;;;;;4.09;91.07;101012.25;5019832;28;20040;-84
2022/01/30 10:08:56;;;;;;;37.63;7.40;;;;;;;4.23;89.74;101015.00;5018618;28;20030;-83
2022/01/30 10:11:37;;;;;;;39.35;6.65;;;;;;;4.10;88.71;101014.91;5017044;28;20033;-84
2022/01/30 10:14:11;;;;;;;35.55;7.22;;;;;;;4.04;88.76;101029.84;5014310;28;20041;-83
2022/01/30 10:16:48;;;;;;;37.60;6.28;;;;;;;3.92;87.06;101042.03;5015222;28;20391;-84
2022/01/30 10:19:20;;;;;;;35.13;5.95;;;;;;;3.93;88.18;101042.94;5016130;28;20613;-84
2022/01/30 10:21:47;;;;;;;36.15;7.07;;;;;;;4.12;86.75;101036.94;5016798;28;20108;-84
2022/01/30 10:24:27;;;;;;;40.28;7.57;;;;;;;4.22;85.99;101058.19;5015586;28;20064;-85
2022/01/30 10:26:56;;;;;;;32.58;6.53;;;;;;;4.01;86.23;101059.75;5015496;28;20033;-84
2022/01/30 10:29:31;;;;;;;40.00;7.80;;;;;;;3.98;87.19;101067.66;5018873;28;20529;-84
2022/01/30 10:32:07;;;;;;;34.58;6.22;;;;;;;3.88;88.11;101057.00;5020299;28;20030;-84
2022/01/30 10:34:35;;;;;;;37.45;6.38;;;;;;;3.89;87.86;101064.03;5017107;28;20521;-85
2022/01/30 10:37:21;;;;;;;39.67;6.80;;;;;;;3.87;88.76;101065.78;5019255;28;20516;-85
2022/01/30 10:40:12;;;;;;;33.70;5.97;;;;;;;3.85;88.37;101056.97;5017443;28;20395;-82
2022/01/30 10:42:41;;;;;;;37.95;6.55;;;;;;;3.74;88.13;101070.03;5018080;28;20026;-84
2022/01/30 10:45:31;;;;;;;33.40;6.38;;;;;;;3.75;87.99;101039.25;5015893;28;20032;-85
2022/01/30 10:48:21;;;;;;;30.33;6.45;;;;;;;4.20;85.26;101052.00;5013819;28;20048;-86
2022/01/30 10:50:48;;;;;;;31.23;5.72;;;;;;;4.36;85.53;101059.19;5014977;28;20025;-87
2022/01/30 10:53:26;;;;;;;35.00;7.07;;;;;;;4.25;83.46;101066.16;5013143;28;20018;-84
2022/01/30 10:56:17;;;;;;;28.65;6.97;;;;;;;4.26;83.27;101062.63;5013948;28;20104;-86
2022/01/30 10:58:42;;;;;;;34.13;6.38;;;;;;;4.24;82.62;101077.59;5014431;28;20061;-86
2022/01/30 11:01:07;;;;;;;32.03;6.88;;;;;;;4.18;82.41;101072.22;5015442;28;20030;-85
2022/01/30 11:03:45;;;;;;;34.05;5.68;;;;;;;4.18;81.15;101080.16;5013781;28;20022;-85
2022/01/30 11:06:14;;;;;;;31.75;6.03;;;;;;;4.14;81.58;101084.56;5019197;28;20537;-86
2022/01/30 11:08:44;;;;;;;35.50;6.78;;;;;;;4.14;79.31;101089.84;5018433;28;20109;-86
2022/01/30 11:11:28;;;;;;;36.70;6.78;;;;;;;4.10;80.06;101086.28;5020005;28;20084;-85
2022/01/30 11:14:14;;;;;;;36.47;6.53;;;;;;;4.11;78.79;101088.06;5019264;28;20034;-87
2022/01/30 11:17:02;;;;;;;36.35;5.90;;;;;;;4.10;78.25;101083.63;5017300;28;20025;-84
2022/01/30 11:19:30;;;;;;;38.30;6.45;;;;;;;4.13;76.97;101091.59;5019909;28;20560;-85
2022/01/30 11:22:04;;;;;;;38.20;7.28;;;;;;;4.16;78.38;101093.38;5017981;28;20026;-85
2022/01/30 11:24:34;;;;;;;32.70;7.15;;;;;;;4.20;79.35;101102.25;5019896;28;20084;-85
2022/01/30 11:27:00;;;;;;;31.50;6.20;;;;;;;4.29;73.39;101083.81;5016676;28;20037;-85
2022/01/30 11:29:27;;;;;;;34.70;5.88;;;;;;;4.58;73.04;101096.41;5017463;28;20021;-84
2022/01/30 11:31:52;;;;;;;30.38;5.70;;;;;;;4.43;74.13;101080.41;5017318;28;20022;-83
2022/01/30 11:34:18;;;;;;;31.00;6.30;;;;;;;4.44;72.96;101082.16;5017067;28;20048;-86
2022/01/30 11:36:45;;;;;;;33.13;5.82;;;;;;;4.44;73.01;101079.50;5019712;28;20026;-85
2022/01/30 11:39:18;;;;;;;44.28;6.57;;;;;;;4.52;73.23;101077.81;5018193;28;20049;-84
2022/01/30 11:42:06;;;;;;;31.85;5.55;;;;;;;4.60;73.33;101074.34;5018976;28;20022;-85
2022/01/30 11:44:31;;;;;;;35.70;6.43;;;;;;;4.46;75.94;101077.75;5022442;28;20184;-86
2022/01/30 11:46:58;;;;;;;33.92;6.60;;;;;;;4.47;76.23;101080.44;5021986;28;20025;-86
2022/01/30 11:49:36;;;;;;;34.08;6.47;;;;;;;4.51;77.62;101072.53;5022488;28;20081;-87
2022/01/30 11:52:02;;;;;;;37.60;6.75;;;;;;;4.51;76.71;101078.69;5017993;28;20036;-87
2022/01/30 11:54:33;;;;;;;37.38;6.35;;;;;;;4.42;76.02;101083.91;5018085;28;20022;-87
2022/01/30 11:56:58;;;;;;;32.42;6.43;;;;;;;4.43;76.24;101077.75;5023262;28;20034;-87
2022/01/30 11:59:39;;;;;;;37.55;5.90;;;;;;;4.44;75.58;101087.44;5018864;28;20120;-86
2022/01/30 12:02:23;;;;;;;29.27;6.20;;;;;;;4.42;77.12;101078.63;5022131;28;20021;-86
2022/01/30 12:05:06;;;;;;;29.50;5.72;;;;;;;4.44;75.54;101077.75;5017216;28;20458;-86
2022/01/30 12:07:39;;;;;;;33.92;6.32;;;;;;;4.42;75.09;101068.94;5015716;28;20036;-86
2022/01/30 12:10:19;;;;;;;28.98;6.57;;;;;;;4.41;74.18;101076.84;5018531;28;20069;-87
2022/01/30 12:12:52;;;;;;;30.80;5.53;;;;;;;4.44;73.61;101083.06;5015421;28;20065;-83